Time;durP1;ratioP1;P1;durP2;ratioP2;P2;SDS_P1;SDS_P2;PMS_P1;PMS_P2;Temp;Humidity;BMP_temperature;BMP_pressure;BME280_temperature;BME280_humidity;BME280_pressure;Samples;Min_cycle;Max_cycle;Signal;HPM_P1;HPM_P2
2022/07/24 00:09:28;;;;;;;7.20;4.25;;;;;;;;;;21257072;27;20398;-56
2022/07/24 00:19:30;;;;;;;8.95;4.57;;;;;;;;;;21256332;27;20074;-55
2022/07/24 00:29:32;;;;;;;8.02;4.53;;;;;;;;;;21255466;27;20065;-56
2022/07/24 00:39:34;;;;;;;6.15;3.90;;;;;;;;;;21254668;27;20147;-55
2022/07/24 00:49:36;;;;;;;8.32;4.82;;;;;;;;;;21254242;27;20051;-55
2022/07/24 00:59:38;;;;;;;6.13;4.07;;;;;;;;;;21252859;27;20138;-55
2022/07/24 01:09:40;;;;;;;6.40;5.00;;;;;;;;;;21252440;27;20053;-54
2022/07/24 01:19:44;;;;;;;6.40;3.58;;;;;;;;;;21251174;27;20492;-55
2022/07/24 01:29:48;;;;;;;6.45;4.00;;;;;;;;;;21250215;27;20134;-54
2022/07/24 01:39:57;;;;;;;7.55;4.63;;;;;;;;;;21249871;27;20110;-56
2022/07/24 01:50:05;;;;;;;6.18;4.20;;;;;;;;;;21249857;27;20069;-56
2022/07/24 02:00:15;;;;;;;8.07;4.30;;;;;;;;;;21248241;27;20047;-55
2022/07/24 02:10:25;;;;;;;8.50;4.28;;;;;;;;;;21247757;27;20047;-55
2022/07/24 02:20:35;;;;;;;5.53;4.23;;;;;;;;;;21247076;27;20050;-55
2022/07/24 02:30:42;;;;;;;6.30;3.50;;;;;;;;;;21248464;27;20477;-55
2022/07/24 02:40:59;;;;;;;5.13;3.80;;;;;;;;;;21247614;28;20051;-56
2022/07/24 02:51:12;;;;;;;7.43;4.20;;;;;;;;;;21246693;28;20047;-54
2022/07/24 03:01:20;;;;;;;5.38;3.80;;;;;;;;;;21245060;28;20047;-55
2022/07/24 03:11:31;;;;;;;6.25;3.80;;;;;;;;;;21247021;27;20543;-55
2022/07/24 03:21:37;;;;;;;5.70;4.10;;;;;;;;;;21261550;27;20051;-54
2022/07/24 03:31:44;;;;;;;8.75;4.00;;;;;;;;;;21260322;27;20043;-55
2022/07/24 03:41:51;;;;;;;7.07;3.85;;;;;;;;;;21260155;27;20078;-55
2022/07/24 03:51:57;;;;;;;6.05;4.07;;;;;;;;;;21259078;27;20055;-55
2022/07/24 04:02:00;;;;;;;8.00;3.97;;;;;;;;;;21258393;27;20047;-55
2022/07/24 04:12:03;;;;;;;7.47;3.88;;;;;;;;;;21258332;27;20043;-54
2022/07/24 04:22:06;;;;;;;6.43;3.80;;;;;;;;;;21256095;27;20055;-55
2022/07/24 04:32:10;;;;;;;4.60;3.88;;;;;;;;;;21255536;27;20043;-57
2022/07/24 04:42:12;;;;;;;6.25;3.85;;;;;;;;;;21255073;27;20083;-54
2022/07/24 04:52:14;;;;;;;5.82;4.70;;;;;;;;;;21254919;27;20547;-56
2022/07/24 05:02:17;;;;;;;6.22;4.25;;;;;;;;;;21253421;27;20085;-55
2022/07/24 05:12:19;;;;;;;7.78;4.70;;;;;;;;;;21252101;27;20050;-54
2022/07/24 05:22:22;;;;;;;5.32;4.55;;;;;;;;;;21252246;27;20051;-55
2022/07/24 05:32:24;;;;;;;8.82;4.60;;;;;;;;;;21250930;27;20402;-55
2022/07/24 05:42:26;;;;;;;10.43;5.15;;;;;;;;;;21249050;27;20051;-55
2022/07/24 05:52:29;;;;;;;9.57;6.00;;;;;;;;;;21249670;27;20050;-54
2022/07/24 06:02:31;;;;;;;12.55;6.65;;;;;;;;;;21249881;27;20379;-54
2022/07/24 06:12:33;;;;;;;13.73;8.80;;;;;;;;;;21230933;27;20483;-56
2022/07/24 06:22:36;;;;;;;15.25;7.97;;;;;;;;;;21247276;27;20108;-59
2022/07/24 06:32:37;;;;;;;12.23;7.40;;;;;;;;;;21246658;27;20144;-58
2022/07/24 06:42:40;;;;;;;15.68;5.65;;;;;;;;;;21246384;28;20055;-56
2022/07/24 06:52:42;;;;;;;8.18;4.75;;;;;;;;;;21258165;27;20044;-55
2022/07/24 07:02:45;;;;;;;10.05;5.28;;;;;;;;;;21263633;27;20105;-55
2022/07/24 07:12:47;;;;;;;8.05;5.45;;;;;;;;;;21261996;27;20077;-55
2022/07/24 07:22:50;;;;;;;8.27;5.00;;;;;;;;;;21262058;27;20117;-56
2022/07/24 07:32:52;;;;;;;9.13;6.00;;;;;;;;;;21260349;27;20047;-55
2022/07/24 07:42:54;;;;;;;13.65;6.07;;;;;;;;;;21259329;27;20100;-55
2022/07/24 07:52:56;;;;;;;96.88;15.82;;;;;;;;;;21258484;27;20047;-56
2022/07/24 08:02:58;;;;;;;93.55;16.85;;;;;;;;;;21256947;27;20075;-56
2022/07/24 08:13:00;;;;;;;10.25;7.55;;;;;;;;;;21257285;27;20491;-55
2022/07/24 08:23:02;;;;;;;10.02;7.07;;;;;;;;;;21256468;27;20174;-57
2022/07/24 08:33:04;;;;;;;10.52;5.45;;;;;;;;;;21255601;27;20118;-55
2022/07/24 08:43:07;;;;;;;11.43;5.45;;;;;;;;;;21255667;27;20092;-58
2022/07/24 08:53:10;;;;;;;11.63;5.10;;;;;;;;;;21255408;27;20138;-54
2022/07/24 09:03:12;;;;;;;9.73;5.50;;;;;;;;;;21254369;27;20043;-56
2022/07/24 09:13:15;;;;;;;9.25;5.35;;;;;;;;;;21252003;27;20047;-54
2022/07/24 09:23:20;;;;;;;8.23;5.05;;;;;;;;;;21252647;27;20107;-56
2022/07/24 09:33:24;;;;;;;7.40;5.22;;;;;;;;;;21251856;27;20082;-56
2022/07/24 09:43:27;;;;;;;7.45;5.60;;;;;;;;;;21250842;27;20058;-54
2022/07/24 09:53:33;;;;;;;7.05;5.28;;;;;;;;;;21250777;27;20452;-55
2022/07/24 10:03:38;;;;;;;8.48;6.43;;;;;;;;;;21250245;27;20487;-56
2022/07/24 10:13:40;;;;;;;13.45;12.15;;;;;;;;;;21249263;27;20043;-57
2022/07/24 10:23:47;;;;;;;6.32;4.38;;;;;;;;;;21248084;27;20051;-56
2022/07/24 10:33:54;;;;;;;4.50;3.00;;;;;;;;;;21247401;27;20060;-57
2022/07/24 10:44:17;;;;;;;5.35;3.33;;;;;;;;;;21248724;28;20099;-57
2022/07/24 10:54:19;;;;;;;11.07;7.20;;;;;;;;;;21248756;28;20487;-56
2022/07/24 11:04:22;;;;;;;13.15;5.43;;;;;;;;;;21247043;28;20483;-56
2022/07/24 11:14:26;;;;;;;6.45;3.10;;;;;;;;;;21246525;28;20047;-57
2022/07/24 11:24:30;;;;;;;4.78;2.50;;;;;;;;;;21245958;28;20143;-57
2022/07/24 11:34:32;;;;;;;3.85;2.80;;;;;;;;;;21249869;27;20492;-58
2022/07/24 11:44:42;;;;;;;3.17;2.20;;;;;;;;;;21261554;27;20051;-56
2022/07/24 11:54:44;;;;;;;3.35;1.90;;;;;;;;;;21260276;27;20047;-56
2022/07/24 12:04:48;;;;;;;2.15;1.40;;;;;;;;;;21260270;27;20105;-55
2022/07/24 12:15:02;;;;;;;3.50;2.65;;;;;;;;;;21259677;27;20062;-54
2022/07/24 12:25:05;;;;;;;10.30;7.18;;;;;;;;;;21257774;27;20055;-56
2022/07/24 12:35:11;;;;;;;2.97;2.03;;;;;;;;;;21257249;27;20054;-55
2022/07/24 12:45:13;;;;;;;2.70;1.75;;;;;;;;;;21255672;27;20397;-54
2022/07/24 12:55:19;;;;;;;3.55;1.92;;;;;;;;;;21255456;27;20505;-56
2022/07/24 13:05:38;;;;;;;4.63;2.63;;;;;;;;;;21254189;27;20043;-57
2022/07/24 13:15:40;;;;;;;3.92;1.75;;;;;;;;;;21253963;27;20047;-55
2022/07/24 13:25:43;;;;;;;4.72;2.90;;;;;;;;;;21253696;27;20482;-53
2022/07/24 13:35:45;;;;;;;5.60;2.88;;;;;;;;;;21251713;27;20055;-56
2022/07/24 13:45:47;;;;;;;4.97;2.70;;;;;;;;;;21251592;27;20483;-55
2022/07/24 13:55:50;;;;;;;7.20;3.17;;;;;;;;;;21250813;27;20050;-54
2022/07/24 14:05:52;;;;;;;5.50;3.58;;;;;;;;;;21250250;27;20047;-59
2022/07/24 14:15:56;;;;;;;7.32;2.90;;;;;;;;;;21248575;27;20047;-54
2022/07/24 14:25:59;;;;;;;6.82;3.10;;;;;;;;;;21247867;27;20539;-55
2022/07/24 14:36:01;;;;;;;8.90;3.45;;;;;;;;;;21247678;27;20051;-56
2022/07/24 14:46:03;;;;;;;9.27;3.45;;;;;;;;;;21247523;28;20402;-56
2022/07/24 14:56:05;;;;;;;9.85;3.40;;;;;;;;;;21247761;28;20039;-55
2022/07/24 15:06:07;;;;;;;11.57;3.28;;;;;;;;;;21246382;27;20047;-58
2022/07/24 15:16:09;;;;;;;15.77;5.07;;;;;;;;;;21261901;27;20498;-57
2022/07/24 15:26:11;;;;;;;14.63;4.00;;;;;;;;;;21262499;27;20417;-57
2022/07/24 15:36:13;;;;;;;15.77;5.10;;;;;;;;;;21261653;27;20522;-57
2022/07/24 15:46:15;;;;;;;16.92;4.57;;;;;;;;;;21260801;27;20051;-55
2022/07/24 15:56:18;;;;;;;16.60;5.20;;;;;;;;;;21260371;27;20079;-54
2022/07/24 16:06:20;;;;;;;18.15;5.53;;;;;;;;;;21259930;27;20047;-57
2022/07/24 16:16:22;;;;;;;20.38;5.30;;;;;;;;;;21259265;27;20556;-56
2022/07/24 16:26:24;;;;;;;23.67;5.57;;;;;;;;;;21257293;27;20469;-57
2022/07/24 16:36:26;;;;;;;16.02;5.43;;;;;;;;;;21256822;27;20401;-56
2022/07/24 16:46:28;;;;;;;26.85;5.30;;;;;;;;;;21256515;27;20051;-57
2022/07/24 16:56:30;;;;;;;25.05;5.50;;;;;;;;;;21255480;27;20051;-55
2022/07/24 17:06:32;;;;;;;21.58;5.65;;;;;;;;;;21254483;27;20537;-55
2022/07/24 17:16:34;;;;;;;21.83;6.85;;;;;;;;;;21253246;27;20043;-55
2022/07/24 17:26:37;;;;;;;17.05;5.57;;;;;;;;;;21252271;27;20051;-56
2022/07/24 17:36:39;;;;;;;23.40;6.03;;;;;;;;;;21251348;27;20041;-57
2022/07/24 17:46:41;;;;;;;18.02;5.05;;;;;;;;;;21250974;27;20051;-54
2022/07/24 17:56:43;;;;;;;21.90;4.85;;;;;;;;;;21251600;27;20444;-55
2022/07/24 18:06:44;;;;;;;13.25;4.57;;;;;;;;;;21249073;27;20059;-54
2022/07/24 18:16:47;;;;;;;21.10;4.55;;;;;;;;;;21249246;27;20039;-58
2022/07/24 18:26:49;;;;;;;22.92;5.55;;;;;;;;;;21247824;27;20143;-54
2022/07/24 18:36:51;;;;;;;18.52;5.38;;;;;;;;;;21247655;27;20043;-58
2022/07/24 18:46:53;;;;;;;21.27;6.65;;;;;;;;;;21265927;27;20402;-56
2022/07/24 18:56:55;;;;;;;16.60;6.07;;;;;;;;;;21275624;27;20122;-55
2022/07/24 19:06:57;;;;;;;17.70;4.72;;;;;;;;;;21276239;27;20134;-59
2022/07/24 19:16:59;;;;;;;15.30;5.00;;;;;;;;;;21258229;27;20146;-57
2022/07/24 19:27:01;;;;;;;16.00;4.90;;;;;;;;;;21274273;27;20051;-55
2022/07/24 19:37:04;;;;;;;19.10;6.22;;;;;;;;;;21274390;27;20047;-56
2022/07/24 19:47:05;;;;;;;14.77;5.15;;;;;;;;;;21274513;27;20051;-55
2022/07/24 19:57:07;;;;;;;18.50;5.60;;;;;;;;;;21266691;27;20084;-57
2022/07/24 20:07:09;;;;;;;19.50;4.80;;;;;;;;;;21259213;27;20058;-56
2022/07/24 20:17:11;;;;;;;18.15;6.20;;;;;;;;;;21240502;27;20130;-55
2022/07/24 20:27:13;;;;;;;19.52;5.28;;;;;;;;;;21257673;27;20062;-54
2022/07/24 20:37:15;;;;;;;20.95;8.13;;;;;;;;;;21257110;27;20039;-57
2022/07/24 20:47:17;;;;;;;34.05;15.35;;;;;;;;;;21256402;27;20551;-58
2022/07/24 20:57:19;;;;;;;17.70;6.00;;;;;;;;;;21255750;27;20081;-57
2022/07/24 21:07:21;;;;;;;18.10;5.25;;;;;;;;;;21253663;27;20043;-57
2022/07/24 21:17:23;;;;;;;24.15;7.05;;;;;;;;;;21252822;27;20478;-56
2022/07/24 21:27:25;;;;;;;14.75;4.75;;;;;;;;;;21252820;27;20050;-55
2022/07/24 21:37:27;;;;;;;15.57;4.97;;;;;;;;;;21253307;27;20046;-56
2022/07/24 21:47:29;;;;;;;12.38;4.20;;;;;;;;;;21253084;27;20043;-58
2022/07/24 21:57:31;;;;;;;17.83;5.70;;;;;;;;;;21234597;27;20402;-57
2022/07/24 22:07:36;;;;;;;20.88;5.25;;;;;;;;;;21251390;27;20083;-56
2022/07/24 22:17:39;;;;;;;16.88;4.63;;;;;;;;;;21250992;27;20371;-56
2022/07/24 22:27:41;;;;;;;21.63;4.78;;;;;;;;;;21250049;27;20054;-59
2022/07/24 22:37:45;;;;;;;18.70;4.90;;;;;;;;;;21248007;27;20584;-55
2022/07/24 22:47:48;;;;;;;16.10;5.05;;;;;;;;;;21246711;28;20054;-56
2022/07/24 22:57:50;;;;;;;15.57;4.65;;;;;;;;;;21247533;28;20039;-55
2022/07/24 23:07:52;;;;;;;20.17;6.43;;;;;;;;;;21246440;28;20047;-57
2022/07/24 23:17:54;;;;;;;13.23;4.50;;;;;;;;;;21246414;28;20090;-57
2022/07/24 23:27:56;;;;;;;17.95;5.05;;;;;;;;;;21247184;27;20459;-58
2022/07/24 23:37:58;;;;;;;17.52;5.18;;;;;;;;;;21261332;27;20051;-56
2022/07/24 23:48:00;;;;;;;22.55;5.50;;;;;;;;;;21260658;27;20047;-56
2022/07/24 23:58:02;;;;;;;18.98;4.85;;;;;;;;;;21260086;27;20126;-55
